Time,TemperatureF,DewpointF,PressureIn,WindDirection,WindDirectionDegrees,WindSpeedMPH,WindSpeedGustMPH,Humidity,HourlyPrecipIn,Conditions,Clouds,dailyrainin,SoftwareType,DateUTC
2013-02-25 00:13:00,31.8,13.0,30.13,NW,314,0.0,-999.0,46,-99.99,,,0.00,weatherlink.com 1.10,2013-02-25 07:13:00,
2013-02-25 00:29:00,31.0,13.0,30.13,NW,314,0.0,-999.0,47,-99.99,,,0.00,weatherlink.com 1.10,2013-02-25 07:29:00,
2013-02-25 00:44:00,30.1,13.0,30.15,NW,314,0.0,-999.0,50,-99.99,,,0.00,weatherlink.com 1.10,2013-02-25 07:44:00,
2013-02-25 00:59:00,28.1,13.0,30.15,NW,314,0.0,-999.0,54,-99.99,,,0.00,weatherlink.com 1.10,2013-02-25 07:59:00,
2013-02-25 01:14:00,27.0,14.0,30.16,NW,314,0.0,-999.0,58,-99.99,,,0.00,weatherlink.com 1.10,2013-02-25 08:14:00,
2013-02-25 01:29:00,26.0,14.0,30.16,NW,314,0.0,-999.0,61,-99.99,,,0.00,weatherlink.com 1.10,2013-02-25 08:29:00,
2013-02-25 01:44:00,25.1,14.0,30.16,NW,314,0.0,-999.0,63,-99.99,,,0.00,weatherlink.com 1.10,2013-02-25 08:44:00,
2013-02-25 01:59:00,24.7,14.0,30.17,NW,314,0.0,-999.0,65,-99.99,,,0.00,weatherlink.com 1.10,2013-02-25 08:59:00,
2013-02-25 02:14:00,24.4,14.0,30.17,NW,314,0.0,-999.0,66,-99.99,,,0.00,weatherlink.com 1.10,2013-02-25 09:14:00,
2013-02-25 02:29:00,23.9,14.0,30.17,NW,314,0.0,-999.0,67,-99.99,,,0.00,weatherlink.com 1.10,2013-02-25 09:29:00,
2013-02-25 02:44:00,23.6,14.0,30.16,NW,314,0.0,-999.0,68,-99.99,,,0.00,weatherlink.com 1.10,2013-02-25 09:44:00,
2013-02-25 02:59:00,23.2,14.0,30.17,NW,314,0.0,-999.0,69,-99.99,,,0.00,weatherlink.com 1.10,2013-02-25 09:59:00,
2013-02-25 03:14:00,23.0,15.0,30.17,NW,314,0.0,-999.0,71,-99.99,,,0.00,weatherlink.com 1.10,2013-02-25 10:14:00,
2013-02-25 03:29:00,22.5,14.0,30.19,NW,314,0.0,-999.0,71,-99.99,,,0.00,weatherlink.com 1.10,2013-02-25 10:29:00,
2013-02-25 03:44:00,22.2,14.0,30.20,NW,314,0.0,-999.0,72,-99.99,,,0.00,weatherlink.com 1.10,2013-02-25 10:44:00,
2013-02-25 03:59:00,21.9,14.0,30.20,NW,314,0.0,-999.0,72,-99.99,,,0.00,weatherlink.com 1.10,2013-02-25 10:59:00,
2013-02-25 04:14:00,21.6,14.0,30.20,NW,314,0.0,-999.0,73,-99.99,,,0.00,weatherlink.com 1.10,2013-02-25 11:14:00,
2013-02-25 04:29:00,21.6,15.0,30.19,NW,314,0.0,-999.0,74,-99.99,,,0.00,weatherlink.com 1.10,2013-02-25 11:29:00,
2013-02-25 04:44:00,21.6,14.0,30.20,NW,314,0.0,-999.0,73,-99.99,,,0.00,weatherlink.com 1.10,2013-02-25 11:44:00,
2013-02-25 04:59:00,21.1,14.0,30.20,NW,314,0.0,-999.0,73,-99.99,,,0.00,weatherlink.com 1.10,2013-02-25 11:59:00,
2013-02-25 05:14:00,21.0,14.0,30.19,NW,314,0.0,-999.0,74,-99.99,,,0.00,weatherlink.com 1.10,2013-02-25 12:14:00,
2013-02-25 05:29:00,20.6,14.0,30.21,NW,314,0.0,-999.0,74,-99.99,,,0.00,weatherlink.com 1.10,2013-02-25 12:29:00,
2013-02-25 05:59:00,19.9,13.0,30.21,NW,314,0.0,-999.0,75,-99.99,,,0.00,weatherlink.com 1.10,2013-02-25 12:59:00,
2013-02-25 06:14:00,19.9,14.0,30.21,NW,314,0.0,-999.0,76,-99.99,,,0.00,weatherlink.com 1.10,2013-02-25 13:14:00,
2013-02-25 06:29:00,19.9,14.0,30.23,NW,314,0.0,-999.0,76,-99.99,,,0.00,weatherlink.com 1.10,2013-02-25 13:29:00,
2013-02-25 06:44:00,19.4,13.0,30.23,NW,314,0.0,-999.0,76,-99.99,,,0.00,weatherlink.com 1.10,2013-02-25 13:44:00,
2013-02-25 06:59:00,19.4,13.0,30.23,NW,314,0.0,-999.0,77,-99.99,,,0.00,weatherlink.com 1.10,2013-02-25 13:59:00,
2013-02-25 07:14:00,20.8,13.0,30.24,East,87,1.0,-999.0,73,-99.99,,,0.00,weatherlink.com 1.10,2013-02-25 14:14:00,
2013-02-25 07:29:00,22.1,14.0,30.24,East,87,0.0,-999.0,71,-99.99,,,0.00,weatherlink.com 1.10,2013-02-25 14:29:00,
2013-02-25 07:44:00,24.2,15.0,30.24,East,87,0.0,-999.0,67,-99.99,,,0.00,weatherlink.com 1.10,2013-02-25 14:44:00,
2013-02-25 07:59:00,27.5,14.0,30.23,ESE,117,0.0,-999.0,56,-99.99,,,0.00,weatherlink.com 1.10,2013-02-25 14:59:00,
2013-02-25 08:15:00,29.0,13.0,30.22,SE,130,1.0,-999.0,52,-99.99,,,0.00,weatherlink.com 1.10,2013-02-25 15:15:00,
2013-02-25 08:29:00,30.1,12.0,30.22,ESE,112,0.0,-999.0,48,-99.99,,,0.00,weatherlink.com 1.10,2013-02-25 15:29:00,
2013-02-25 08:44:00,32.1,14.0,30.23,ESE,113,4.0,-999.0,47,-99.99,,,0.00,weatherlink.com 1.10,2013-02-25 15:44:00,
2013-02-25 08:59:00,34.3,14.0,30.22,ESE,113,0.0,-999.0,44,-99.99,,,0.00,weatherlink.com 1.10,2013-02-25 15:59:00,
2013-02-25 09:14:00,33.5,13.0,30.21,ESE,113,0.0,-999.0,43,-99.99,,,0.00,weatherlink.com 1.10,2013-02-25 16:14:00,
2013-02-25 09:29:00,32.9,15.0,30.21,North,351,2.0,-999.0,47,-99.99,,,0.00,weatherlink.com 1.10,2013-02-25 16:29:00,
2013-02-25 09:44:00,32.9,15.0,30.22,WNW,297,1.0,-999.0,47,-99.99,,,0.00,weatherlink.com 1.10,2013-02-25 16:44:00,
2013-02-25 09:59:00,33.5,15.0,30.22,NW,310,2.0,-999.0,46,-99.99,,,0.00,weatherlink.com 1.10,2013-02-25 16:59:00,
2013-02-25 10:14:00,34.6,14.0,30.21,NNW,329,2.0,-999.0,42,-99.99,,,0.00,weatherlink.com 1.10,2013-02-25 17:14:00,
2013-02-25 10:29:00,35.3,14.0,30.20,North,355,1.0,-999.0,41,-99.99,,,0.00,weatherlink.com 1.10,2013-02-25 17:29:00,
2013-02-25 10:45:00,36.2,12.0,30.19,NNE,12,2.0,-999.0,37,-99.99,,,0.00,weatherlink.com 1.10,2013-02-25 17:45:00,
2013-02-25 11:00:00,37.0,12.0,30.18,NNE,14,2.0,-999.0,36,-99.99,,,0.00,weatherlink.com 1.10,2013-02-25 18:00:00,
2013-02-25 11:15:00,37.3,12.0,30.16,NW,310,1.0,-999.0,35,-99.99,,,0.00,weatherlink.com 1.10,2013-02-25 18:15:00,
2013-02-25 11:30:00,38.0,12.0,30.16,NNW,339,4.0,-999.0,35,-99.99,,,0.00,weatherlink.com 1.10,2013-02-25 18:30:00,
2013-02-25 11:45:00,38.3,12.0,30.16,SW,235,3.0,-999.0,34,-99.99,,,0.00,weatherlink.com 1.10,2013-02-25 18:45:00,
2013-02-25 12:00:00,39.6,13.0,30.16,West,265,5.0,-999.0,34,-99.99,,,0.00,weatherlink.com 1.10,2013-02-25 19:00:00,
2013-02-25 12:15:00,39.5,13.0,30.14,WSW,243,2.0,-999.0,34,-99.99,,,0.00,weatherlink.com 1.10,2013-02-25 19:15:00,
2013-02-25 12:30:00,40.5,13.0,30.15,SSW,196,0.0,-999.0,33,-99.99,,,0.00,weatherlink.com 1.10,2013-02-25 19:30:00,
2013-02-25 12:45:00,41.9,12.0,30.14,WSW,253,4.0,-999.0,29,-99.99,,,0.00,weatherlink.com 1.10,2013-02-25 19:45:00,
2013-02-25 13:00:00,41.6,11.0,30.12,WSW,246,3.0,-999.0,29,-99.99,,,0.00,weatherlink.com 1.10,2013-02-25 20:00:00,
2013-02-25 13:15:00,41.3,12.0,30.11,WNW,296,2.0,-999.0,30,-99.99,,,0.00,weatherlink.com 1.10,2013-02-25 20:15:00,
2013-02-25 13:30:00,41.2,10.0,30.12,NNW,346,0.0,-999.0,28,-99.99,,,0.00,weatherlink.com 1.10,2013-02-25 20:30:00,
2013-02-25 13:45:00,42.1,10.0,30.11,WSW,248,2.0,-999.0,27,-99.99,,,0.00,weatherlink.com 1.10,2013-02-25 20:45:00,
2013-02-25 14:00:00,42.3,10.0,30.09,NW,311,4.0,-999.0,27,-99.99,,,0.00,weatherlink.com 1.10,2013-02-25 21:00:00,
2013-02-25 14:15:00,42.9,10.0,30.07,West,275,3.0,-999.0,26,-99.99,,,0.00,weatherlink.com 1.10,2013-02-25 21:15:00,
2013-02-25 14:45:00,43.6,11.0,30.06,South,175,0.0,-999.0,26,-99.99,,,0.00,weatherlink.com 1.10,2013-02-25 21:45:00,
2013-02-25 15:00:00,44.1,8.0,30.06,NW,304,4.0,-999.0,23,-99.99,,,0.00,weatherlink.com 1.10,2013-02-25 22:00:00,
2013-02-25 15:15:00,43.8,7.0,30.06,NNW,340,1.0,-999.0,22,-99.99,,,0.00,weatherlink.com 1.10,2013-02-25 22:15:00,
2013-02-25 15:30:00,44.5,6.0,30.05,NNW,348,1.0,-999.0,20,-99.99,,,0.00,weatherlink.com 1.10,2013-02-25 22:30:00,
2013-02-25 15:45:00,45.1,6.0,30.04,North,349,1.0,-999.0,20,-99.99,,,0.00,weatherlink.com 1.10,2013-02-25 22:45:00,
2013-02-25 16:00:00,45.5,4.0,30.02,SSE,159,1.0,-999.0,18,-99.99,,,0.00,weatherlink.com 1.10,2013-02-25 23:00:00,
2013-02-25 16:15:00,45.2,5.0,30.03,SSW,208,1.0,-999.0,19,-99.99,,,0.00,weatherlink.com 1.10,2013-02-25 23:15:00,
2013-02-25 16:30:00,45.8,6.0,30.02,South,184,0.0,-999.0,19,-99.99,,,0.00,weatherlink.com 1.10,2013-02-25 23:30:00,
2013-02-25 16:45:00,45.7,4.0,30.00,NNW,342,0.0,-999.0,18,-99.99,,,0.00,weatherlink.com 1.10,2013-02-25 23:45:00,
2013-02-25 17:00:00,44.2,6.0,30.01,SW,230,2.0,-999.0,21,-99.99,,,0.00,weatherlink.com 1.10,2013-02-26 00:00:00,
2013-02-25 17:15:00,43.2,7.0,30.02,SW,231,0.0,-999.0,22,-99.99,,,0.00,weatherlink.com 1.10,2013-02-26 00:15:00,
2013-02-25 17:30:00,42.6,6.0,30.01,SW,231,0.0,-999.0,22,-99.99,,,0.00,weatherlink.com 1.10,2013-02-26 00:30:00,
2013-02-25 17:45:00,42.2,7.0,30.00,SW,231,0.0,-999.0,23,-99.99,,,0.00,weatherlink.com 1.10,2013-02-26 00:45:00,
2013-02-25 18:00:00,41.6,8.0,30.00,SW,231,0.0,-999.0,25,-99.99,,,0.00,weatherlink.com 1.10,2013-02-26 01:00:00,
2013-02-25 18:15:00,40.6,10.0,29.99,SW,231,0.0,-999.0,28,-99.99,,,0.00,weatherlink.com 1.10,2013-02-26 01:15:00,
2013-02-25 18:45:00,40.1,14.0,29.97,ESE,105,0.0,-999.0,35,-99.99,,,0.00,weatherlink.com 1.10,2013-02-26 01:45:00,
2013-02-25 19:00:00,40.2,15.0,29.99,West,277,1.0,-999.0,36,-99.99,,,0.00,weatherlink.com 1.10,2013-02-26 02:00:00,
2013-02-25 19:15:00,39.8,15.0,29.94,West,277,0.0,-999.0,37,-99.99,,,0.00,weatherlink.com 1.10,2013-02-26 02:15:00,
2013-02-25 19:30:00,38.8,14.0,29.95,West,277,0.0,-999.0,37,-99.99,,,0.00,weatherlink.com 1.10,2013-02-26 02:30:00,
2013-02-25 19:45:00,37.9,16.0,29.95,West,277,0.0,-999.0,41,-99.99,,,0.00,weatherlink.com 1.10,2013-02-26 02:45:00,
2013-02-25 20:00:00,36.6,17.0,29.96,West,277,0.0,-999.0,45,-99.99,,,0.00,weatherlink.com 1.10,2013-02-26 03:00:00,
2013-02-25 20:15:00,35.9,17.0,29.93,West,277,0.0,-999.0,47,-99.99,,,0.00,weatherlink.com 1.10,2013-02-26 03:15:00,
2013-02-25 20:30:00,35.0,18.0,29.95,West,277,0.0,-999.0,51,-99.99,,,0.00,weatherlink.com 1.10,2013-02-26 03:30:00,
2013-02-25 20:45:00,34.1,18.0,29.95,West,277,0.0,-999.0,52,-99.99,,,0.00,weatherlink.com 1.10,2013-02-26 03:45:00,
2013-02-25 21:00:00,32.7,18.0,29.95,West,277,0.0,-999.0,55,-99.99,,,0.00,weatherlink.com 1.10,2013-02-26 04:00:00,
2013-02-25 21:15:00,31.9,18.0,29.96,West,277,0.0,-999.0,58,-99.99,,,0.00,weatherlink.com 1.10,2013-02-26 04:15:00,
2013-02-25 21:30:00,30.9,19.0,29.97,West,277,0.0,-999.0,61,-99.99,,,0.00,weatherlink.com 1.10,2013-02-26 04:30:00,
2013-02-25 21:45:00,30.0,19.0,29.96,West,277,0.0,-999.0,63,-99.99,,,0.00,weatherlink.com 1.10,2013-02-26 04:45:00,
2013-02-25 22:00:00,29.7,20.0,29.96,West,277,0.0,-999.0,66,-99.99,,,0.00,weatherlink.com 1.10,2013-02-26 05:00:00,
2013-02-25 22:15:00,30.1,20.0,29.95,West,277,0.0,-999.0,65,-99.99,,,0.00,weatherlink.com 1.10,2013-02-26 05:15:00,
2013-02-25 22:30:00,30.3,20.0,29.95,West,277,0.0,-999.0,66,-99.99,,,0.00,weatherlink.com 1.10,2013-02-26 05:30:00,
2013-02-25 22:45:00,30.9,20.0,29.93,West,277,0.0,-999.0,64,-99.99,,,0.00,weatherlink.com 1.10,2013-02-26 05:45:00,
2013-02-25 23:00:00,31.3,20.0,29.93,West,277,0.0,-999.0,63,-99.99,,,0.00,weatherlink.com 1.10,2013-02-26 06:00:00,
2013-02-25 23:16:00,31.9,20.0,29.92,West,277,0.0,-999.0,61,-99.99,,,0.00,weatherlink.com 1.10,2013-02-26 06:16:00,
2013-02-25 23:31:00,32.1,20.0,29.92,West,277,0.0,-999.0,62,-99.99,,,0.00,weatherlink.com 1.10,2013-02-26 06:31:00,
2013-02-25 23:46:00,31.3,20.0,29.93,West,277,0.0,-999.0,64,-99.99,,,0.00,weatherlink.com 1.10,2013-02-26 06:46:00,